Time;durP1;ratioP1;P1;durP2;ratioP2;P2;SDS_P1;SDS_P2;PMS_P1;PMS_P2;Temp;Humidity;BMP_temperature;BMP_pressure;BME280_temperature;BME280_humidity;BME280_pressure;Samples;Min_cycle;Max_cycle;Signal;HPM_P1;HPM_P2
2022/08/26 00:01:58;;;;;;;52.60;25.77;;;;;;;;;;761796;185;916275;-56
2022/08/26 00:04:24;;;;;;;38.23;27.20;;;;;;;;;;755910;181;920002;-56
2022/08/26 00:06:50;;;;;;;41.00;24.40;;;;;;;;;;752687;184;927386;-55
2022/08/26 00:09:15;;;;;;;35.53;26.20;;;;;;;;;;752786;181;926462;-55
2022/08/26 00:11:41;;;;;;;40.13;23.93;;;;;;;;;;754976;185;918021;-55
2022/08/26 00:14:07;;;;;;;38.10;25.40;;;;;;;;;;754718;181;912099;-55
2022/08/26 00:16:33;;;;;;;44.13;27.67;;;;;;;;;;757737;184;919073;-55
2022/08/26 00:18:59;;;;;;;47.80;25.47;;;;;;;;;;753802;185;920057;-56
2022/08/26 00:21:25;;;;;;;36.60;26.20;;;;;;;;;;751167;184;823999;-56
2022/08/26 00:23:51;;;;;;;36.30;25.67;;;;;;;;;;760133;184;920499;-56
2022/08/26 00:26:16;;;;;;;32.83;25.50;;;;;;;;;;761503;184;919694;-55
2022/08/26 00:28:42;;;;;;;32.33;24.83;;;;;;;;;;757152;181;846079;-56
2022/08/26 00:31:08;;;;;;;35.43;26.80;;;;;;;;;;752347;185;932734;-55
2022/08/26 00:33:34;;;;;;;43.03;25.37;;;;;;;;;;763870;184;921686;-55
2022/08/26 00:36:00;;;;;;;35.20;25.10;;;;;;;;;;753944;182;911130;-55
2022/08/26 00:38:26;;;;;;;38.83;24.53;;;;;;;;;;749118;185;917952;-55
2022/08/26 00:40:52;;;;;;;41.30;24.73;;;;;;;;;;757864;185;922206;-55
2022/08/26 00:43:18;;;;;;;42.93;23.50;;;;;;;;;;747570;184;919776;-55
2022/08/26 00:45:43;;;;;;;39.73;23.90;;;;;;;;;;751871;181;920158;-55
2022/08/26 00:48:09;;;;;;;34.73;23.37;;;;;;;;;;745185;184;921200;-56
2022/08/26 00:50:35;;;;;;;28.90;22.60;;;;;;;;;;758952;182;920142;-55
2022/08/26 00:53:01;;;;;;;32.70;21.97;;;;;;;;;;753474;184;921489;-56
2022/08/26 00:55:37;;;;;;;40.77;21.00;;;;;;;;;;751605;184;919290;-55
2022/08/26 00:58:03;;;;;;;30.62;22.02;;;;;;;;;;754503;184;820601;-57
2022/08/26 01:00:28;;;;;;;29.47;21.40;;;;;;;;;;766394;182;713840;-56
2022/08/26 01:02:54;;;;;;;30.40;21.80;;;;;;;;;;753142;183;917507;-56
2022/08/26 01:05:20;;;;;;;41.27;21.77;;;;;;;;;;756035;182;917862;-57
2022/08/26 01:07:46;;;;;;;35.23;21.97;;;;;;;;;;753121;184;919379;-58
2022/08/26 01:10:14;;;;;;;31.13;21.83;;;;;;;;;;753960;184;919063;-56
2022/08/26 01:12:38;;;;;;;29.20;21.23;;;;;;;;;;756591;184;918593;-57
2022/08/26 01:15:05;;;;;;;37.87;23.13;;;;;;;;;;752231;184;852533;-56
2022/08/26 01:17:31;;;;;;;32.33;22.93;;;;;;;;;;752654;184;916005;-56
2022/08/26 01:19:58;;;;;;;32.50;20.57;;;;;;;;;;748080;184;915847;-56
2022/08/26 01:22:26;;;;;;;42.30;22.30;;;;;;;;;;752708;185;921833;-57
2022/08/26 01:24:52;;;;;;;34.37;22.83;;;;;;;;;;767073;182;819163;-57
2022/08/26 01:27:18;;;;;;;33.13;24.30;;;;;;;;;;749201;182;918004;-57
2022/08/26 01:29:44;;;;;;;30.03;22.97;;;;;;;;;;757615;182;817436;-57
2022/08/26 01:32:10;;;;;;;32.50;23.60;;;;;;;;;;753056;185;918835;-56
2022/08/26 01:34:36;;;;;;;39.60;26.50;;;;;;;;;;753425;184;919551;-56
2022/08/26 01:37:16;;;;;;;38.03;25.20;;;;;;;;;;753767;183;818219;-56
2022/08/26 01:39:42;;;;;;;39.53;27.37;;;;;;;;;;751977;185;919323;-57
2022/08/26 01:42:08;;;;;;;51.37;28.20;;;;;;;;;;762117;184;918524;-56
2022/08/26 01:44:35;;;;;;;48.03;30.77;;;;;;;;;;755413;184;931808;-56
2022/08/26 01:47:00;;;;;;;43.07;31.50;;;;;;;;;;751280;183;919770;-57
2022/08/26 01:49:26;;;;;;;47.72;29.17;;;;;;;;;;751847;184;919744;-57
2022/08/26 01:51:52;;;;;;;38.63;29.00;;;;;;;;;;769118;181;919515;-56
2022/08/26 01:54:18;;;;;;;45.20;28.33;;;;;;;;;;745822;185;919570;-57
2022/08/26 01:56:44;;;;;;;47.37;27.40;;;;;;;;;;752637;185;919756;-57
2022/08/26 01:59:09;;;;;;;39.80;27.10;;;;;;;;;;756834;184;940655;-55
2022/08/26 02:01:36;;;;;;;47.17;26.67;;;;;;;;;;755869;184;918772;-56
2022/08/26 02:04:07;;;;;;;38.47;26.90;;;;;;;;;;753352;183;919824;-57
2022/08/26 02:06:33;;;;;;;49.67;27.30;;;;;;;;;;759100;184;919646;-57
2022/08/26 02:08:59;;;;;;;47.23;26.33;;;;;;;;;;752845;184;919432;-57
2022/08/26 02:11:25;;;;;;;42.97;26.70;;;;;;;;;;748603;182;919431;-57
2022/08/26 02:13:50;;;;;;;48.40;26.27;;;;;;;;;;752238;185;920995;-57
2022/08/26 02:16:17;;;;;;;38.73;27.13;;;;;;;;;;760329;184;818353;-56
2022/08/26 02:18:42;;;;;;;37.90;26.57;;;;;;;;;;751378;184;919630;-57
2022/08/26 02:21:08;;;;;;;56.50;29.87;;;;;;;;;;753007;184;917851;-57
2022/08/26 02:23:34;;;;;;;42.50;26.30;;;;;;;;;;753858;185;919484;-57
2022/08/26 02:26:01;;;;;;;39.43;25.37;;;;;;;;;;755009;184;917868;-57
2022/08/26 02:28:27;;;;;;;41.67;26.80;;;;;;;;;;753676;184;927002;-56
2022/08/26 02:30:53;;;;;;;40.33;24.87;;;;;;;;;;754814;185;818239;-57
2022/08/26 02:33:19;;;;;;;30.33;25.90;;;;;;;;;;751020;185;919547;-56
2022/08/26 02:35:45;;;;;;;34.70;23.60;;;;;;;;;;753564;184;918882;-57
2022/08/26 02:38:11;;;;;;;37.90;25.17;;;;;;;;;;751925;184;921521;-57
2022/08/26 02:40:38;;;;;;;30.63;23.20;;;;;;;;;;753755;182;922540;-56
2022/08/26 02:43:03;;;;;;;31.03;23.50;;;;;;;;;;749954;184;920044;-56
2022/08/26 02:45:28;;;;;;;36.17;23.30;;;;;;;;;;755299;182;920616;-58
2022/08/26 02:47:55;;;;;;;30.93;22.70;;;;;;;;;;758816;184;921226;-56
2022/08/26 02:50:21;;;;;;;32.10;24.13;;;;;;;;;;756839;184;853175;-57
2022/08/26 02:52:47;;;;;;;42.27;24.13;;;;;;;;;;760130;182;649777;-60
2022/08/26 02:55:12;;;;;;;33.77;22.50;;;;;;;;;;755306;186;627312;-58
2022/08/26 02:57:38;;;;;;;28.97;22.60;;;;;;;;;;754814;184;633041;-57
2022/08/26 03:00:04;;;;;;;27.50;21.80;;;;;;;;;;754479;184;819167;-57
2022/08/26 03:02:30;;;;;;;36.90;24.07;;;;;;;;;;754949;184;919740;-58
2022/08/26 03:04:56;;;;;;;27.90;20.40;;;;;;;;;;759952;184;817558;-57
2022/08/26 03:07:21;;;;;;;35.23;21.93;;;;;;;;;;757351;184;620786;-57
2022/08/26 03:09:47;;;;;;;33.33;21.40;;;;;;;;;;757910;184;625405;-57
2022/08/26 03:12:13;;;;;;;27.70;21.67;;;;;;;;;;757426;185;617984;-57
2022/08/26 03:14:39;;;;;;;32.60;23.47;;;;;;;;;;756315;184;916549;-57
2022/08/26 03:17:07;;;;;;;29.87;21.47;;;;;;;;;;756867;184;917088;-57
2022/08/26 03:19:32;;;;;;;28.37;20.67;;;;;;;;;;760873;182;916687;-57
2022/08/26 03:21:58;;;;;;;31.73;21.20;;;;;;;;;;753892;184;920267;-58
2022/08/26 03:24:24;;;;;;;24.30;20.50;;;;;;;;;;748177;185;934317;-58
2022/08/26 03:26:50;;;;;;;24.90;20.87;;;;;;;;;;753253;184;918230;-57
2022/08/26 03:31:48;;;;;;;27.10;20.47;;;;;;;;;;754280;183;919006;-57
2022/08/26 03:34:13;;;;;;;25.80;21.87;;;;;;;;;;752590;184;919158;-57
2022/08/26 03:36:39;;;;;;;35.07;23.57;;;;;;;;;;753427;185;920968;-57
2022/08/26 03:39:05;;;;;;;32.03;22.40;;;;;;;;;;754719;184;926621;-58
2022/08/26 03:41:31;;;;;;;32.23;25.17;;;;;;;;;;750456;185;921546;-58
2022/08/26 03:43:57;;;;;;;37.47;25.77;;;;;;;;;;754764;184;918754;-58
2022/08/26 03:46:23;;;;;;;38.33;26.90;;;;;;;;;;768458;181;817576;-57
2022/08/26 03:48:48;;;;;;;45.50;26.43;;;;;;;;;;748778;185;816721;-57
2022/08/26 03:51:15;;;;;;;37.93;28.83;;;;;;;;;;747791;182;918651;-58
2022/08/26 03:53:41;;;;;;;40.27;30.03;;;;;;;;;;757819;184;817321;-57
2022/08/26 03:56:07;;;;;;;43.73;30.50;;;;;;;;;;757577;182;918917;-57
2022/08/26 03:58:33;;;;;;;52.20;29.87;;;;;;;;;;754138;184;918540;-57
2022/08/26 04:00:58;;;;;;;46.97;33.20;;;;;;;;;;760016;182;880262;-56
2022/08/26 04:05:56;;;;;;;40.27;31.33;;;;;;;;;;756744;184;919864;-57
2022/08/26 04:08:22;;;;;;;54.90;32.67;;;;;;;;;;753506;184;922200;-58
2022/08/26 04:10:48;;;;;;;58.47;32.88;;;;;;;;;;760348;184;909141;-57
2022/08/26 04:13:14;;;;;;;56.70;31.70;;;;;;;;;;754195;184;913580;-58
2022/08/26 04:15:40;;;;;;;55.87;34.20;;;;;;;;;;751593;185;918615;-57
2022/08/26 04:18:06;;;;;;;56.27;31.40;;;;;;;;;;753768;183;919286;-57
2022/08/26 04:20:32;;;;;;;48.30;32.07;;;;;;;;;;755677;184;918832;-57
2022/08/26 04:22:58;;;;;;;60.43;33.17;;;;;;;;;;755429;184;915203;-57
2022/08/26 04:25:23;;;;;;;51.67;32.80;;;;;;;;;;756647;184;919657;-58
2022/08/26 04:27:49;;;;;;;80.05;35.50;;;;;;;;;;756259;185;818198;-58
2022/08/26 04:30:15;;;;;;;62.17;36.20;;;;;;;;;;754598;185;816305;-57
2022/08/26 04:32:41;;;;;;;58.73;35.50;;;;;;;;;;749129;186;918098;-58
2022/08/26 04:35:07;;;;;;;60.70;37.17;;;;;;;;;;755739;185;918985;-58
2022/08/26 04:37:33;;;;;;;64.60;37.80;;;;;;;;;;736123;188;894255;-57
2022/08/26 04:39:59;;;;;;;55.00;35.90;;;;;;;;;;752155;185;919599;-58
2022/08/26 04:42:25;;;;;;;59.10;35.80;;;;;;;;;;761563;184;919062;-57
2022/08/26 04:44:50;;;;;;;56.40;35.87;;;;;;;;;;750027;185;819779;-56
2022/08/26 04:47:16;;;;;;;58.77;37.43;;;;;;;;;;754053;185;919684;-57
2022/08/26 04:49:42;;;;;;;64.87;40.60;;;;;;;;;;752185;185;915036;-57
2022/08/26 04:52:08;;;;;;;60.33;39.80;;;;;;;;;;752414;184;843650;-57
2022/08/26 04:54:34;;;;;;;67.30;37.20;;;;;;;;;;757137;184;907707;-57
2022/08/26 04:57:00;;;;;;;50.93;37.50;;;;;;;;;;753617;184;917916;-57
2022/08/26 04:59:25;;;;;;;66.17;34.90;;;;;;;;;;757887;184;917072;-57
2022/08/26 05:01:51;;;;;;;56.60;37.57;;;;;;;;;;754413;184;919220;-58
2022/08/26 05:04:17;;;;;;;56.60;40.27;;;;;;;;;;755235;184;919241;-57
2022/08/26 05:06:43;;;;;;;62.07;39.93;;;;;;;;;;751736;185;918908;-57
2022/08/26 05:09:09;;;;;;;62.80;41.60;;;;;;;;;;758762;183;919689;-59
2022/08/26 05:11:36;;;;;;;66.67;43.47;;;;;;;;;;756131;184;918343;-57
2022/08/26 05:14:01;;;;;;;70.37;43.28;;;;;;;;;;759471;184;919016;-57
2022/08/26 05:16:27;;;;;;;74.80;43.87;;;;;;;;;;750950;180;919209;-58
2022/08/26 05:18:53;;;;;;;83.70;45.55;;;;;;;;;;753404;184;919497;-56
2022/08/26 05:21:18;;;;;;;78.00;46.70;;;;;;;;;;749188;184;912393;-58
2022/08/26 05:23:44;;;;;;;77.10;45.73;;;;;;;;;;765642;179;915464;-57
2022/08/26 05:26:10;;;;;;;77.43;45.20;;;;;;;;;;757092;184;919913;-58
2022/08/26 05:28:36;;;;;;;111.95;74.95;;;;;;;;;;747606;185;918724;-59
2022/08/26 05:31:02;;;;;;;126.60;63.60;;;;;;;;;;762695;184;918496;-60
2022/08/26 05:33:28;;;;;;;113.87;53.20;;;;;;;;;;751037;182;918484;-59
2022/08/26 05:35:53;;;;;;;105.17;54.60;;;;;;;;;;756085;184;916131;-58
2022/08/26 05:38:19;;;;;;;112.33;60.20;;;;;;;;;;759235;185;917815;-59
2022/08/26 05:40:45;;;;;;;127.00;61.20;;;;;;;;;;751204;185;919696;-61
2022/08/26 05:43:12;;;;;;;109.87;55.60;;;;;;;;;;753914;185;821161;-59
2022/08/26 05:45:37;;;;;;;120.57;58.00;;;;;;;;;;754179;183;918783;-59
2022/08/26 05:48:04;;;;;;;112.73;57.87;;;;;;;;;;770043;182;913857;-58
2022/08/26 05:50:29;;;;;;;102.50;56.43;;;;;;;;;;753446;184;914800;-59
2022/08/26 05:52:55;;;;;;;96.00;58.60;;;;;;;;;;750834;184;916460;-58
2022/08/26 05:55:20;;;;;;;108.83;57.07;;;;;;;;;;759410;184;919236;-58
2022/08/26 05:57:46;;;;;;;116.90;60.67;;;;;;;;;;750613;185;926866;-58
2022/08/26 06:00:12;;;;;;;116.80;61.17;;;;;;;;;;754133;185;943081;-58
2022/08/26 06:02:38;;;;;;;103.47;63.50;;;;;;;;;;754038;182;919279;-58
2022/08/26 06:05:04;;;;;;;95.67;57.60;;;;;;;;;;753439;184;915896;-58
2022/08/26 06:10:02;;;;;;;101.27;63.40;;;;;;;;;;754253;184;818275;-60
2022/08/26 06:12:28;;;;;;;113.13;63.90;;;;;;;;;;758074;184;817840;-58
2022/08/26 06:14:54;;;;;;;87.27;59.40;;;;;;;;;;753474;184;917512;-58
2022/08/26 06:17:19;;;;;;;85.10;59.70;;;;;;;;;;752463;183;918789;-58
2022/08/26 06:19:45;;;;;;;83.20;55.93;;;;;;;;;;761131;183;933838;-58
2022/08/26 06:25:36;;;;;;;74.97;51.97;;;;;;;;;;757315;183;917741;-58
2022/08/26 06:27:12;;;;;;;73.57;57.40;;;;;;;;;;749098;184;816354;-59
2022/08/26 06:29:34;;;;;;;60.97;50.07;;;;;;;;;;757466;184;918963;-58
2022/08/26 06:32:00;;;;;;;63.57;43.80;;;;;;;;;;753828;184;918117;-58
2022/08/26 06:34:29;;;;;;;57.83;41.70;;;;;;;;;;752912;184;918306;-58
2022/08/26 06:36:55;;;;;;;56.72;38.70;;;;;;;;;;756181;183;887476;-58
2022/08/26 06:39:21;;;;;;;53.17;37.50;;;;;;;;;;749836;185;847296;-58
2022/08/26 06:41:46;;;;;;;53.13;37.70;;;;;;;;;;749547;184;920406;-59
2022/08/26 06:44:12;;;;;;;55.20;35.73;;;;;;;;;;750214;184;918917;-59
2022/08/26 06:46:38;;;;;;;52.83;34.67;;;;;;;;;;760753;181;918567;-59
2022/08/26 06:49:04;;;;;;;49.13;32.73;;;;;;;;;;747939;185;918259;-59
2022/08/26 06:51:31;;;;;;;46.97;30.63;;;;;;;;;;747679;185;919526;-59
2022/08/26 06:53:58;;;;;;;36.17;27.67;;;;;;;;;;753162;185;919847;-58
2022/08/26 06:56:22;;;;;;;49.37;29.33;;;;;;;;;;751685;184;919341;-59
2022/08/26 06:58:48;;;;;;;45.27;29.50;;;;;;;;;;755556;182;933804;-58
2022/08/26 07:01:16;;;;;;;37.27;28.63;;;;;;;;;;754280;183;918744;-60
2022/08/26 07:03:42;;;;;;;33.43;24.30;;;;;;;;;;754096;184;929366;-59
2022/08/26 07:06:09;;;;;;;31.43;26.43;;;;;;;;;;751434;182;918678;-58
2022/08/26 07:08:34;;;;;;;47.70;26.27;;;;;;;;;;750141;185;918674;-60
2022/08/26 07:11:00;;;;;;;50.23;27.17;;;;;;;;;;754455;185;819076;-59
2022/08/26 07:13:26;;;;;;;44.57;25.40;;;;;;;;;;752917;184;918111;-58
2022/08/26 07:15:52;;;;;;;39.63;26.20;;;;;;;;;;754590;184;883616;-60
2022/08/26 07:18:17;;;;;;;38.07;22.97;;;;;;;;;;753505;185;917412;-59
2022/08/26 07:20:43;;;;;;;43.43;23.73;;;;;;;;;;737189;186;900111;-60
2022/08/26 07:23:10;;;;;;;33.90;23.73;;;;;;;;;;747766;185;919420;-59
2022/08/26 07:25:38;;;;;;;38.53;25.30;;;;;;;;;;753039;184;918613;-60
2022/08/26 07:28:03;;;;;;;43.33;21.80;;;;;;;;;;749689;180;918368;-60
2022/08/26 07:30:29;;;;;;;35.17;22.70;;;;;;;;;;749814;180;919827;-60
2022/08/26 07:32:55;;;;;;;37.37;22.50;;;;;;;;;;751086;184;920310;-59
2022/08/26 07:35:21;;;;;;;49.90;22.60;;;;;;;;;;766026;181;919172;-59
2022/08/26 07:37:47;;;;;;;45.03;24.27;;;;;;;;;;754535;184;918921;-58
2022/08/26 07:40:13;;;;;;;43.57;23.77;;;;;;;;;;755522;184;930764;-60
2022/08/26 07:42:39;;;;;;;40.60;23.30;;;;;;;;;;757919;185;911622;-58
2022/08/26 07:45:05;;;;;;;39.43;25.50;;;;;;;;;;752415;184;913535;-60
2022/08/26 07:47:31;;;;;;;46.28;22.62;;;;;;;;;;751871;184;916708;-60
2022/08/26 07:49:57;;;;;;;41.07;23.53;;;;;;;;;;751701;184;920066;-57
2022/08/26 07:52:23;;;;;;;49.67;23.87;;;;;;;;;;749343;185;820040;-59
2022/08/26 07:54:48;;;;;;;36.80;22.07;;;;;;;;;;756315;184;919138;-59
2022/08/26 07:57:15;;;;;;;45.97;21.83;;;;;;;;;;753626;185;917736;-59
2022/08/26 07:59:40;;;;;;;42.20;24.47;;;;;;;;;;759489;185;877417;-60
2022/08/26 08:02:06;;;;;;;34.20;21.77;;;;;;;;;;755736;184;916429;-60
2022/08/26 08:04:33;;;;;;;43.90;19.43;;;;;;;;;;750025;185;916767;-60
2022/08/26 08:06:58;;;;;;;46.20;21.60;;;;;;;;;;757136;184;816517;-58
2022/08/26 08:09:24;;;;;;;43.80;21.70;;;;;;;;;;755747;184;816997;-58
2022/08/26 08:11:50;;;;;;;34.07;21.33;;;;;;;;;;753863;184;1014906;-59
2022/08/26 08:14:17;;;;;;;34.53;19.93;;;;;;;;;;755082;183;842325;-60
2022/08/26 08:16:42;;;;;;;34.87;19.00;;;;;;;;;;756192;184;917535;-58
2022/08/26 08:19:08;;;;;;;36.07;19.37;;;;;;;;;;749986;185;918573;-57
2022/08/26 08:21:33;;;;;;;36.97;19.80;;;;;;;;;;753840;184;816558;-57
2022/08/26 08:23:59;;;;;;;36.43;18.53;;;;;;;;;;749765;185;915557;-59
2022/08/26 08:26:25;;;;;;;31.83;19.80;;;;;;;;;;751583;184;914935;-59
2022/08/26 08:28:53;;;;;;;36.97;19.97;;;;;;;;;;753839;184;918644;-58
2022/08/26 08:31:20;;;;;;;36.13;21.80;;;;;;;;;;760902;184;917784;-58
2022/08/26 08:33:45;;;;;;;31.48;19.20;;;;;;;;;;752296;184;927380;-58
2022/08/26 08:36:13;;;;;;;28.67;18.47;;;;;;;;;;754671;184;918636;-59
2022/08/26 08:38:37;;;;;;;45.90;21.67;;;;;;;;;;741990;187;878581;-58
2022/08/26 08:41:03;;;;;;;35.70;18.80;;;;;;;;;;749199;185;918157;-60
2022/08/26 08:43:35;;;;;;;31.80;18.30;;;;;;;;;;756492;183;918796;-59
2022/08/26 08:46:00;;;;;;;31.90;19.17;;;;;;;;;;751383;184;919397;-60
2022/08/26 08:48:28;;;;;;;33.00;19.57;;;;;;;;;;761826;184;716229;-59
2022/08/26 08:50:52;;;;;;;38.30;18.67;;;;;;;;;;758780;182;907520;-59
2022/08/26 08:53:21;;;;;;;27.33;18.20;;;;;;;;;;748556;184;918654;-59
2022/08/26 08:55:49;;;;;;;37.07;18.10;;;;;;;;;;753372;184;918850;-61
2022/08/26 08:58:14;;;;;;;32.27;17.10;;;;;;;;;;746610;187;920279;-57
2022/08/26 09:00:42;;;;;;;26.60;15.47;;;;;;;;;;750060;185;920000;-59
2022/08/26 09:03:08;;;;;;;33.30;16.03;;;;;;;;;;723313;192;816883;-57
2022/08/26 09:05:38;;;;;;;36.47;18.90;;;;;;;;;;756319;186;897308;-60
2022/08/26 09:08:01;;;;;;;33.27;17.37;;;;;;;;;;756291;184;919534;-59
2022/08/26 09:10:27;;;;;;;37.33;16.30;;;;;;;;;;751451;185;813974;-60
2022/08/26 09:12:52;;;;;;;37.53;15.43;;;;;;;;;;756055;180;916823;-58
2022/08/26 09:15:25;;;;;;;20.77;14.33;;;;;;;;;;755379;184;920408;-59
2022/08/26 09:17:51;;;;;;;26.03;13.80;;;;;;;;;;752052;181;926300;-60
2022/08/26 09:20:19;;;;;;;25.75;14.15;;;;;;;;;;753332;184;905497;-58
2022/08/26 09:22:45;;;;;;;27.93;12.73;;;;;;;;;;751680;185;918964;-59
2022/08/26 09:25:10;;;;;;;30.42;12.40;;;;;;;;;;755050;184;921028;-59
2022/08/26 09:27:37;;;;;;;28.43;11.93;;;;;;;;;;747109;185;956827;-59
2022/08/26 09:30:03;;;;;;;16.90;12.07;;;;;;;;;;754701;185;919735;-60
2022/08/26 09:32:30;;;;;;;24.17;12.60;;;;;;;;;;756401;184;920625;-59
2022/08/26 09:34:56;;;;;;;23.33;12.07;;;;;;;;;;755422;184;919021;-60
2022/08/26 09:37:28;;;;;;;28.97;13.97;;;;;;;;;;752467;184;880250;-60
2022/08/26 09:39:53;;;;;;;22.13;12.00;;;;;;;;;;754821;184;917183;-58
2022/08/26 09:42:19;;;;;;;23.33;11.70;;;;;;;;;;750993;185;916899;-59
2022/08/26 09:44:50;;;;;;;19.40;10.70;;;;;;;;;;753531;184;818088;-58
2022/08/26 09:47:16;;;;;;;22.70;11.07;;;;;;;;;;754430;183;907925;-57
2022/08/26 09:49:43;;;;;;;24.37;10.67;;;;;;;;;;760038;184;912625;-60
2022/08/26 09:52:26;;;;;;;26.50;11.13;;;;;;;;;;749055;185;919818;-58
2022/08/26 09:54:57;;;;;;;19.80;10.97;;;;;;;;;;749498;184;916804;-58
2022/08/26 09:57:24;;;;;;;21.27;10.15;;;;;;;;;;755113;184;919164;-60
2022/08/26 09:59:50;;;;;;;20.27;10.10;;;;;;;;;;750023;184;919486;-60
2022/08/26 10:02:22;;;;;;;22.50;11.60;;;;;;;;;;759372;184;787620;-59
2022/08/26 10:04:48;;;;;;;30.23;11.07;;;;;;;;;;750920;184;822270;-57
2022/08/26 10:07:14;;;;;;;17.73;9.63;;;;;;;;;;757734;184;919508;-59
2022/08/26 10:09:41;;;;;;;21.20;9.10;;;;;;;;;;757539;184;911826;-59
2022/08/26 10:12:06;;;;;;;26.50;9.50;;;;;;;;;;759362;184;616281;-58
2022/08/26 10:14:32;;;;;;;22.43;9.20;;;;;;;;;;757235;184;629952;-60
2022/08/26 10:17:01;;;;;;;20.27;9.40;;;;;;;;;;756211;182;916288;-59
2022/08/26 10:19:27;;;;;;;16.93;8.63;;;;;;;;;;760480;184;628266;-60
2022/08/26 10:21:53;;;;;;;19.77;8.90;;;;;;;;;;759116;184;623094;-60
2022/08/26 10:24:22;;;;;;;16.40;8.10;;;;;;;;;;755896;184;817017;-58
2022/08/26 10:26:51;;;;;;;24.80;9.10;;;;;;;;;;756370;185;919599;-57
2022/08/26 10:29:18;;;;;;;19.97;8.67;;;;;;;;;;758263;184;626877;-61
2022/08/26 10:31:46;;;;;;;16.13;8.80;;;;;;;;;;753304;184;622745;-58
2022/08/26 10:34:12;;;;;;;17.13;10.33;;;;;;;;;;757624;184;891985;-59
2022/08/26 10:39:10;;;;;;;28.77;10.03;;;;;;;;;;756247;182;630865;-58
2022/08/26 10:41:36;;;;;;;15.23;7.07;;;;;;;;;;754380;184;783932;-58
2022/08/26 10:44:02;;;;;;;21.37;10.07;;;;;;;;;;754616;184;916854;-59
2022/08/26 10:46:28;;;;;;;19.97;9.07;;;;;;;;;;756556;183;919331;-60
2022/08/26 10:48:56;;;;;;;25.23;10.37;;;;;;;;;;754007;184;919192;-62
2022/08/26 10:51:22;;;;;;;18.83;8.60;;;;;;;;;;748521;184;919433;-57
2022/08/26 10:54:01;;;;;;;15.67;7.20;;;;;;;;;;757038;184;919304;-57
2022/08/26 10:56:33;;;;;;;14.10;8.60;;;;;;;;;;759408;184;919179;-59
2022/08/26 10:58:59;;;;;;;21.13;8.57;;;;;;;;;;746913;185;918705;-59
2022/08/26 11:01:48;;;;;;;17.00;6.53;;;;;;;;;;753713;184;919159;-62
2022/08/26 11:04:15;;;;;;;16.93;7.60;;;;;;;;;;753686;184;913932;-59
2022/08/26 11:06:44;;;;;;;20.83;6.70;;;;;;;;;;751754;183;920425;-60
2022/08/26 11:09:07;;;;;;;16.90;7.47;;;;;;;;;;758158;183;817251;-59
2022/08/26 11:11:45;;;;;;;14.67;8.50;;;;;;;;;;752754;184;818423;-58
2022/08/26 11:14:17;;;;;;;20.60;8.23;;;;;;;;;;751465;184;921218;-57
2022/08/26 11:16:43;;;;;;;22.57;9.43;;;;;;;;;;753102;184;919084;-58
2022/08/26 11:19:09;;;;;;;22.20;8.83;;;;;;;;;;758065;183;918603;-58
2022/08/26 11:21:42;;;;;;;16.43;8.37;;;;;;;;;;762958;183;918036;-58
2022/08/26 11:24:07;;;;;;;19.17;9.00;;;;;;;;;;754997;184;817695;-58
2022/08/26 11:26:33;;;;;;;20.37;8.20;;;;;;;;;;749116;184;917266;-59
2022/08/26 11:28:59;;;;;;;16.73;8.50;;;;;;;;;;754238;181;926807;-59
2022/08/26 11:31:39;;;;;;;16.07;7.93;;;;;;;;;;739150;188;919899;-57
2022/08/26 11:34:07;;;;;;;18.37;8.20;;;;;;;;;;756221;182;919551;-60
2022/08/26 11:36:36;;;;;;;19.63;9.13;;;;;;;;;;750542;185;919027;-58
2022/08/26 11:39:02;;;;;;;19.53;9.40;;;;;;;;;;752739;185;919961;-58
2022/08/26 11:41:29;;;;;;;16.50;8.77;;;;;;;;;;753387;185;914892;-61
2022/08/26 11:43:53;;;;;;;20.53;8.70;;;;;;;;;;754171;184;919893;-60
2022/08/26 11:46:22;;;;;;;16.90;8.30;;;;;;;;;;749459;184;846251;-58
2022/08/26 11:48:48;;;;;;;18.73;8.57;;;;;;;;;;755687;182;918864;-59
2022/08/26 11:51:23;;;;;;;18.93;8.97;;;;;;;;;;752719;184;919038;-59
2022/08/26 11:53:49;;;;;;;14.53;8.27;;;;;;;;;;751318;184;939835;-58
2022/08/26 11:56:17;;;;;;;24.67;8.60;;;;;;;;;;753119;184;919441;-59
2022/08/26 11:58:43;;;;;;;16.03;9.80;;;;;;;;;;760505;184;918906;-59
2022/08/26 12:01:08;;;;;;;17.17;8.57;;;;;;;;;;747135;185;921346;-58
2022/08/26 12:03:48;;;;;;;18.50;8.47;;;;;;;;;;752670;184;922739;-59
2022/08/26 12:06:20;;;;;;;18.00;8.80;;;;;;;;;;753362;184;919231;-59
2022/08/26 12:08:46;;;;;;;13.30;8.17;;;;;;;;;;746248;186;917894;-59
2022/08/26 12:11:13;;;;;;;18.13;7.53;;;;;;;;;;754644;185;913619;-59
2022/08/26 12:13:39;;;;;;;20.40;10.03;;;;;;;;;;749485;185;918485;-57
2022/08/26 12:16:05;;;;;;;29.93;8.97;;;;;;;;;;751580;184;915711;-58
2022/08/26 12:18:30;;;;;;;26.27;8.50;;;;;;;;;;756047;184;919828;-58
2022/08/26 12:20:57;;;;;;;22.60;8.33;;;;;;;;;;743183;187;919091;-57
2022/08/26 12:23:24;;;;;;;27.33;8.83;;;;;;;;;;750434;184;919087;-59
2022/08/26 12:25:50;;;;;;;18.73;8.20;;;;;;;;;;752751;184;919084;-57
2022/08/26 12:28:15;;;;;;;14.73;8.33;;;;;;;;;;755547;184;918979;-60
2022/08/26 12:30:41;;;;;;;15.07;8.40;;;;;;;;;;752019;183;920103;-57
2022/08/26 12:33:07;;;;;;;18.33;8.77;;;;;;;;;;746548;185;919273;-60
2022/08/26 12:35:34;;;;;;;20.80;8.73;;;;;;;;;;757698;184;918656;-59
2022/08/26 12:37:59;;;;;;;28.53;8.40;;;;;;;;;;749535;185;921159;-59
2022/08/26 12:40:31;;;;;;;29.17;8.37;;;;;;;;;;749301;185;919387;-57
2022/08/26 12:42:59;;;;;;;22.33;9.80;;;;;;;;;;756990;184;864327;-57
2022/08/26 12:45:28;;;;;;;17.20;8.40;;;;;;;;;;752746;184;921755;-58
2022/08/26 12:47:54;;;;;;;16.93;7.20;;;;;;;;;;751465;185;920874;-58
2022/08/26 12:50:20;;;;;;;21.63;8.50;;;;;;;;;;753628;184;818044;-57
2022/08/26 12:52:50;;;;;;;17.03;7.90;;;;;;;;;;757718;185;771898;-58
2022/08/26 12:55:19;;;;;;;31.23;9.53;;;;;;;;;;756327;184;918828;-57
2022/08/26 12:57:46;;;;;;;25.73;9.77;;;;;;;;;;748451;185;818788;-58
2022/08/26 13:00:22;;;;;;;19.17;7.77;;;;;;;;;;751812;182;920002;-58
2022/08/26 13:02:49;;;;;;;18.30;9.23;;;;;;;;;;759109;183;919588;-58
2022/08/26 13:05:18;;;;;;;15.83;8.47;;;;;;;;;;752013;182;918254;-58
2022/08/26 13:07:44;;;;;;;20.30;8.50;;;;;;;;;;751733;183;919499;-57
2022/08/26 13:10:10;;;;;;;18.40;8.68;;;;;;;;;;753177;184;918951;-57
2022/08/26 13:12:36;;;;;;;18.90;9.30;;;;;;;;;;757508;184;918769;-57
2022/08/26 13:15:02;;;;;;;20.27;9.33;;;;;;;;;;749837;185;920487;-56
2022/08/26 13:17:28;;;;;;;16.30;7.47;;;;;;;;;;753690;184;921324;-57
2022/08/26 13:19:54;;;;;;;15.40;8.20;;;;;;;;;;754085;185;815299;-56
2022/08/26 13:22:21;;;;;;;20.20;10.30;;;;;;;;;;756587;184;919149;-56
2022/08/26 13:24:45;;;;;;;15.85;8.55;;;;;;;;;;752887;184;919923;-57
2022/08/26 13:27:11;;;;;;;18.93;9.30;;;;;;;;;;753350;184;917296;-56
2022/08/26 13:29:37;;;;;;;16.13;8.40;;;;;;;;;;749763;184;919438;-56
2022/08/26 13:32:03;;;;;;;15.60;8.43;;;;;;;;;;750531;184;919568;-57
2022/08/26 13:34:29;;;;;;;16.77;8.50;;;;;;;;;;753698;183;910573;-57
2022/08/26 13:36:55;;;;;;;20.67;8.27;;;;;;;;;;761236;184;915945;-55
2022/08/26 13:39:20;;;;;;;20.53;10.20;;;;;;;;;;749867;184;920885;-56
2022/08/26 13:41:46;;;;;;;12.10;7.93;;;;;;;;;;753820;184;922731;-56
2022/08/26 13:44:12;;;;;;;12.57;8.30;;;;;;;;;;756146;182;820136;-56
2022/08/26 13:46:38;;;;;;;17.37;10.53;;;;;;;;;;738379;186;919965;-55
2022/08/26 13:49:07;;;;;;;21.77;10.53;;;;;;;;;;738568;187;910266;-56
2022/08/26 13:51:33;;;;;;;14.67;9.10;;;;;;;;;;726854;190;818184;-57
2022/08/26 13:53:58;;;;;;;19.20;11.67;;;;;;;;;;743555;187;920193;-57
2022/08/26 13:56:26;;;;;;;21.03;10.03;;;;;;;;;;749252;186;915684;-55
2022/08/26 13:58:51;;;;;;;16.48;10.65;;;;;;;;;;754863;184;919513;-57
2022/08/26 14:01:17;;;;;;;22.33;9.50;;;;;;;;;;754294;185;916902;-56
2022/08/26 14:03:42;;;;;;;18.63;9.53;;;;;;;;;;756273;184;919736;-55
2022/08/26 14:06:08;;;;;;;17.60;9.93;;;;;;;;;;749183;185;919008;-55
2022/08/26 14:08:35;;;;;;;14.90;9.47;;;;;;;;;;753087;185;924312;-57
2022/08/26 14:11:00;;;;;;;16.30;10.80;;;;;;;;;;739822;185;918999;-55
2022/08/26 14:13:26;;;;;;;29.93;10.47;;;;;;;;;;746573;186;921421;-55
2022/08/26 14:15:52;;;;;;;25.13;9.47;;;;;;;;;;755014;182;921469;-55